sensor_id;sensor_type;location;lat;lon;timestamp;pressure;altitude;pressure_sealevel;temperature;humidity
36798;BME280;22748;8.426;99.512;2023-07-29T00:01:16;100508.31;;;29.27;69.49
36798;BME280;22748;8.426;99.512;2023-07-29T00:03:46;100506.88;;;29.31;69.44
36798;BME280;22748;8.426;99.512;2023-07-29T00:06:16;100516.06;;;29.04;70.02
36798;BME280;22748;8.426;99.512;2023-07-29T00:08:54;100528.25;;;29.13;69.84
36798;BME280;22748;8.426;99.512;2023-07-29T00:11:26;100526.94;;;29.22;69.47
36798;BME280;22748;8.426;99.512;2023-07-29T00:14:02;100536.91;;;29.15;69.64
36798;BME280;22748;8.426;99.512;2023-07-29T00:16:32;100538.16;;;29.19;69.70
36798;BME280;22748;8.426;99.512;2023-07-29T00:19:11;100543.69;;;29.24;69.94
36798;BME280;22748;8.426;99.512;2023-07-29T00:21:41;100543.28;;;29.27;70.05
36798;BME280;22748;8.426;99.512;2023-07-29T00:24:23;100544.31;;;29.26;69.89
36798;BME280;22748;8.426;99.512;2023-07-29T00:26:53;100551.16;;;29.29;70.40
36798;BME280;22748;8.426;99.512;2023-07-29T00:29:23;100548.22;;;29.30;70.13
36798;BME280;22748;8.426;99.512;2023-07-29T00:31:53;100542.25;;;29.28;70.27
36798;BME280;22748;8.426;99.512;2023-07-29T00:34:24;100548.84;;;29.32;70.49
36798;BME280;22748;8.426;99.512;2023-07-29T00:36:54;100546.16;;;29.32;70.30
36798;BME280;22748;8.426;99.512;2023-07-29T00:39:36;100554.72;;;29.16;71.26
36798;BME280;22748;8.426;99.512;2023-07-29T00:42:08;100563.41;;;29.18;71.42
36798;BME280;22748;8.426;99.512;2023-07-29T00:44:45;100565.44;;;29.29;71.11
36798;BME280;22748;8.426;99.512;2023-07-29T00:47:16;100568.91;;;29.37;71.03
36798;BME280;22748;8.426;99.512;2023-07-29T00:49:47;100565.56;;;29.41;71.32
36798;BME280;22748;8.426;99.512;2023-07-29T00:52:18;100564.50;;;29.49;70.89
36798;BME280;22748;8.426;99.512;2023-07-29T00:54:51;100571.94;;;29.53;70.98
36798;BME280;22748;8.426;99.512;2023-07-29T00:57:23;100569.00;;;29.62;71.24
36798;BME280;22748;8.426;99.512;2023-07-29T00:59:55;100567.28;;;29.67;71.26
36798;BME280;22748;8.426;99.512;2023-07-29T01:02:28;100568.16;;;29.61;71.12
36798;BME280;22748;8.426;99.512;2023-07-29T01:05:06;100579.13;;;29.66;71.00
36798;BME280;22748;8.426;99.512;2023-07-29T01:07:54;100580.53;;;29.76;71.08
36798;BME280;22748;8.426;99.512;2023-07-29T01:10:39;100584.00;;;29.83;70.49
36798;BME280;22748;8.426;99.512;2023-07-29T01:13:19;100591.22;;;29.89;70.53
36798;BME280;22748;8.426;99.512;2023-07-29T01:15:54;100596.56;;;29.96;70.83
36798;BME280;22748;8.426;99.512;2023-07-29T01:18:29;100596.97;;;29.99;70.26
36798;BME280;22748;8.426;99.512;2023-07-29T01:21:04;100601.09;;;30.02;70.35
36798;BME280;22748;8.426;99.512;2023-07-29T01:23:48;100608.50;;;30.06;69.98
36798;BME280;22748;8.426;99.512;2023-07-29T01:26:22;100612.41;;;30.10;70.37
36798;BME280;22748;8.426;99.512;2023-07-29T01:28:54;100617.59;;;30.12;69.71
36798;BME280;22748;8.426;99.512;2023-07-29T01:31:30;100627.47;;;30.18;69.88
36798;BME280;22748;8.426;99.512;2023-07-29T01:34:08;100624.16;;;30.23;69.96
36798;BME280;22748;8.426;99.512;2023-07-29T01:36:46;100628.28;;;30.25;69.87
36798;BME280;22748;8.426;99.512;2023-07-29T01:39:33;100617.47;;;30.32;69.73
36798;BME280;22748;8.426;99.512;2023-07-29T01:42:05;100622.00;;;30.38;69.76
36798;BME280;22748;8.426;99.512;2023-07-29T01:44:37;100620.28;;;30.44;69.47
36798;BME280;22748;8.426;99.512;2023-07-29T01:47:07;100626.13;;;30.41;69.27
36798;BME280;22748;8.426;99.512;2023-07-29T01:49:38;100627.03;;;30.53;68.91
36798;BME280;22748;8.426;99.512;2023-07-29T01:52:09;100626.28;;;30.71;68.75
36798;BME280;22748;8.426;99.512;2023-07-29T01:54:42;100628.84;;;30.84;68.30
36798;BME280;22748;8.426;99.512;2023-07-29T01:57:14;100641.50;;;30.84;68.15
36798;BME280;22748;8.426;99.512;2023-07-29T01:59:43;100637.75;;;30.85;68.08
36798;BME280;22748;8.426;99.512;2023-07-29T02:02:13;100639.03;;;30.82;67.82
36798;BME280;22748;8.426;99.512;2023-07-29T02:04:44;100635.72;;;30.80;68.14
36798;BME280;22748;8.426;99.512;2023-07-29T02:07:21;100644.84;;;30.79;68.45
36798;BME280;22748;8.426;99.512;2023-07-29T02:09:56;100650.22;;;30.79;68.21
36798;BME280;22748;8.426;99.512;2023-07-29T02:12:27;100649.41;;;30.79;68.28
36798;BME280;22748;8.426;99.512;2023-07-29T02:15:03;100644.84;;;30.79;68.06
36798;BME280;22748;8.426;99.512;2023-07-29T02:17:33;100648.13;;;30.81;67.85
36798;BME280;22748;8.426;99.512;2023-07-29T02:20:05;100641.72;;;30.82;67.90
36798;BME280;22748;8.426;99.512;2023-07-29T02:22:37;100651.91;;;30.80;68.00
36798;BME280;22748;8.426;99.512;2023-07-29T02:25:10;100650.84;;;30.81;67.34
36798;BME280;22748;8.426;99.512;2023-07-29T02:27:46;100651.44;;;30.83;67.71
36798;BME280;22748;8.426;99.512;2023-07-29T02:30:17;100657.28;;;30.80;67.36
36798;BME280;22748;8.426;99.512;2023-07-29T02:33:02;100666.03;;;30.75;67.52
36798;BME280;22748;8.426;99.512;2023-07-29T02:35:47;100657.50;;;30.79;67.38
36798;BME280;22748;8.426;99.512;2023-07-29T02:38:19;100656.22;;;30.81;67.43
36798;BME280;22748;8.426;99.512;2023-07-29T02:41:11;100654.38;;;30.82;67.40
36798;BME280;22748;8.426;99.512;2023-07-29T02:43:43;100658.50;;;30.84;67.69
36798;BME280;22748;8.426;99.512;2023-07-29T02:46:18;100649.56;;;30.90;67.55
36798;BME280;22748;8.426;99.512;2023-07-29T02:48:50;100659.28;;;30.91;67.23
36798;BME280;22748;8.426;99.512;2023-07-29T02:51:21;100649.31;;;30.92;66.94
36798;BME280;22748;8.426;99.512;2023-07-29T02:53:53;100662.59;;;30.93;67.06
36798;BME280;22748;8.426;99.512;2023-07-29T02:56:32;100659.88;;;30.93;66.99
36798;BME280;22748;8.426;99.512;2023-07-29T02:59:03;100657.34;;;30.99;66.78
36798;BME280;22748;8.426;99.512;2023-07-29T03:01:33;100657.13;;;31.00;66.88
36798;BME280;22748;8.426;99.512;2023-07-29T03:04:09;100646.34;;;31.00;66.62
36798;BME280;22748;8.426;99.512;2023-07-29T03:06:40;100649.03;;;31.00;66.24
36798;BME280;22748;8.426;99.512;2023-07-29T03:09:10;100657.06;;;31.07;66.65
36798;BME280;22748;8.426;99.512;2023-07-29T03:11:50;100653.94;;;31.10;66.62
36798;BME280;22748;8.426;99.512;2023-07-29T03:14:26;100651.97;;;31.17;66.21
36798;BME280;22748;8.426;99.512;2023-07-29T03:17:03;100659.41;;;31.22;65.96
36798;BME280;22748;8.426;99.512;2023-07-29T03:19:40;100656.84;;;31.27;66.15
36798;BME280;22748;8.426;99.512;2023-07-29T03:22:10;100658.28;;;31.29;65.89
36798;BME280;22748;8.426;99.512;2023-07-29T03:24:42;100664.03;;;31.33;65.66
36798;BME280;22748;8.426;99.512;2023-07-29T03:27:13;100672.94;;;31.33;65.55
36798;BME280;22748;8.426;99.512;2023-07-29T03:29:45;100667.13;;;31.36;65.45
36798;BME280;22748;8.426;99.512;2023-07-29T03:32:22;100658.81;;;31.38;65.54
36798;BME280;22748;8.426;99.512;2023-07-29T03:34:58;100658.56;;;31.40;65.63
36798;BME280;22748;8.426;99.512;2023-07-29T03:37:40;100648.38;;;31.42;65.59
36798;BME280;22748;8.426;99.512;2023-07-29T03:40:12;100650.47;;;31.40;65.71
36798;BME280;22748;8.426;99.512;2023-07-29T03:42:45;100639.06;;;31.37;65.52
36798;BME280;22748;8.426;99.512;2023-07-29T03:45:20;100642.16;;;31.41;65.76
36798;BME280;22748;8.426;99.512;2023-07-29T03:47:51;100647.16;;;31.37;65.68
36798;BME280;22748;8.426;99.512;2023-07-29T03:50:24;100636.16;;;31.39;65.77
36798;BME280;22748;8.426;99.512;2023-07-29T03:52:56;100637.16;;;31.45;65.78
36798;BME280;22748;8.426;99.512;2023-07-29T03:55:33;100641.41;;;31.52;65.15
36798;BME280;22748;8.426;99.512;2023-07-29T03:58:21;100652.59;;;31.56;65.34
36798;BME280;22748;8.426;99.512;2023-07-29T04:00:51;100651.31;;;31.59;65.46
36798;BME280;22748;8.426;99.512;2023-07-29T04:03:26;100642.63;;;31.56;66.23
36798;BME280;22748;8.426;99.512;2023-07-29T04:05:56;100631.59;;;31.58;67.85
36798;BME280;22748;8.426;99.512;2023-07-29T04:08:27;100632.81;;;31.62;68.43
36798;BME280;22748;8.426;99.512;2023-07-29T04:10:58;100630.31;;;31.61;67.82
36798;BME280;22748;8.426;99.512;2023-07-29T04:13:31;100627.63;;;31.61;68.00
36798;BME280;22748;8.426;99.512;2023-07-29T04:16:01;100620.81;;;31.58;67.88
36798;BME280;22748;8.426;99.512;2023-07-29T04:18:32;100624.53;;;31.57;68.01
36798;BME280;22748;8.426;99.512;2023-07-29T04:21:03;100628.31;;;31.56;67.95
36798;BME280;22748;8.426;99.512;2023-07-29T04:23:45;100621.41;;;31.60;68.41
36798;BME280;22748;8.426;99.512;2023-07-29T04:26:22;100621.41;;;31.60;68.10
36798;BME280;22748;8.426;99.512;2023-07-29T04:29:00;100619.06;;;31.64;68.22
36798;BME280;22748;8.426;99.512;2023-07-29T04:31:36;100607.44;;;31.63;67.84
36798;BME280;22748;8.426;99.512;2023-07-29T04:34:07;100607.44;;;31.63;68.35
36798;BME280;22748;8.426;99.512;2023-07-29T04:36:37;100600.53;;;31.67;68.03
36798;BME280;22748;8.426;99.512;2023-07-29T04:39:08;100588.66;;;31.68;67.67
36798;BME280;22748;8.426;99.512;2023-07-29T04:41:39;100583.25;;;31.68;67.54
36798;BME280;22748;8.426;99.512;2023-07-29T04:44:11;100587.41;;;31.71;67.19
36798;BME280;22748;8.426;99.512;2023-07-29T04:46:43;100577.06;;;31.68;66.95
36798;BME280;22748;8.426;99.512;2023-07-29T04:49:19;100569.53;;;31.70;66.91
36798;BME280;22748;8.426;99.512;2023-07-29T04:51:50;100560.03;;;31.67;66.27
36798;BME280;22748;8.426;99.512;2023-07-29T04:54:21;100556.28;;;31.68;66.27
36798;BME280;22748;8.426;99.512;2023-07-29T04:56:56;100561.59;;;31.75;66.09
36798;BME280;22748;8.426;99.512;2023-07-29T04:59:34;100558.81;;;31.82;65.83
36798;BME280;22748;8.426;99.512;2023-07-29T05:02:05;100554.44;;;31.81;65.80
36798;BME280;22748;8.426;99.512;2023-07-29T05:04:42;100554.00;;;31.84;65.30
36798;BME280;22748;8.426;99.512;2023-07-29T05:07:12;100561.63;;;31.87;64.88
36798;BME280;22748;8.426;99.512;2023-07-29T05:09:47;100551.41;;;31.89;64.38
36798;BME280;22748;8.426;99.512;2023-07-29T05:12:17;100551.03;;;31.85;64.28
36798;BME280;22748;8.426;99.512;2023-07-29T05:14:52;100552.69;;;31.86;63.10
36798;BME280;22748;8.426;99.512;2023-07-29T05:17:22;100542.50;;;31.88;63.19
36798;BME280;22748;8.426;99.512;2023-07-29T05:19:53;100523.94;;;31.92;62.96
36798;BME280;22748;8.426;99.512;2023-07-29T05:22:23;100518.09;;;31.95;63.08
36798;BME280;22748;8.426;99.512;2023-07-29T05:24:53;100514.78;;;31.93;62.81
36798;BME280;22748;8.426;99.512;2023-07-29T05:27:23;100515.59;;;31.93;62.45
36798;BME280;22748;8.426;99.512;2023-07-29T05:30:07;100508.91;;;31.96;61.95
36798;BME280;22748;8.426;99.512;2023-07-29T05:32:38;100504.13;;;31.98;62.13
36798;BME280;22748;8.426;99.512;2023-07-29T05:35:08;100498.09;;;31.96;62.01
36798;BME280;22748;8.426;99.512;2023-07-29T05:37:45;100497.69;;;31.99;62.01
36798;BME280;22748;8.426;99.512;2023-07-29T05:40:31;100501.53;;;32.03;61.58
36798;BME280;22748;8.426;99.512;2023-07-29T05:43:03;100492.75;;;32.08;61.63
36798;BME280;22748;8.426;99.512;2023-07-29T05:45:33;100486.88;;;32.11;61.50
36798;BME280;22748;8.426;99.512;2023-07-29T05:48:06;100485.13;;;32.16;59.87
36798;BME280;22748;8.426;99.512;2023-07-29T05:50:37;100481.94;;;32.20;60.12
36798;BME280;22748;8.426;99.512;2023-07-29T05:53:12;100476.66;;;32.25;60.04
36798;BME280;22748;8.426;99.512;2023-07-29T05:55:42;100473.50;;;32.28;59.84
36798;BME280;22748;8.426;99.512;2023-07-29T05:58:12;100471.72;;;32.33;59.46
36798;BME280;22748;8.426;99.512;2023-07-29T06:00:49;100471.47;;;32.35;59.79
36798;BME280;22748;8.426;99.512;2023-07-29T06:03:19;100461.75;;;32.34;60.15
36798;BME280;22748;8.426;99.512;2023-07-29T06:05:52;100457.38;;;32.33;60.07
36798;BME280;22748;8.426;99.512;2023-07-29T06:08:22;100456.91;;;32.36;59.95
36798;BME280;22748;8.426;99.512;2023-07-29T06:10:55;100457.47;;;32.38;59.67
36798;BME280;22748;8.426;99.512;2023-07-29T06:13:34;100448.91;;;32.41;59.80
36798;BME280;22748;8.426;99.512;2023-07-29T06:16:06;100441.63;;;32.42;59.75
36798;BME280;22748;8.426;99.512;2023-07-29T06:18:38;100431.28;;;32.38;59.76
36798;BME280;22748;8.426;99.512;2023-07-29T06:21:14;100432.13;;;32.39;59.64
36798;BME280;22748;8.426;99.512;2023-07-29T06:23:47;100428.47;;;32.45;59.36
36798;BME280;22748;8.426;99.512;2023-07-29T06:26:19;100424.47;;;32.48;59.64
36798;BME280;22748;8.426;99.512;2023-07-29T06:28:50;100416.84;;;32.45;59.60
36798;BME280;22748;8.426;99.512;2023-07-29T06:31:35;100415.78;;;32.34;59.78
36798;BME280;22748;8.426;99.512;2023-07-29T06:34:06;100410.25;;;32.29;59.89
36798;BME280;22748;8.426;99.512;2023-07-29T06:36:41;100399.44;;;32.29;59.97
36798;BME280;22748;8.426;99.512;2023-07-29T06:39:20;100399.59;;;32.34;60.20
36798;BME280;22748;8.426;99.512;2023-07-29T06:41:50;100396.88;;;32.34;60.45
36798;BME280;22748;8.426;99.512;2023-07-29T06:44:22;100394.88;;;32.29;60.29
36798;BME280;22748;8.426;99.512;2023-07-29T06:46:55;100391.47;;;32.34;59.80
36798;BME280;22748;8.426;99.512;2023-07-29T06:49:26;100392.63;;;32.38;59.29
36798;BME280;22748;8.426;99.512;2023-07-29T06:51:57;100382.97;;;32.42;58.42
36798;BME280;22748;8.426;99.512;2023-07-29T06:54:29;100380.38;;;32.47;58.61
36798;BME280;22748;8.426;99.512;2023-07-29T06:57:00;100375.31;;;32.51;57.99
36798;BME280;22748;8.426;99.512;2023-07-29T06:59:32;100381.91;;;32.55;57.83
36798;BME280;22748;8.426;99.512;2023-07-29T07:02:06;100378.28;;;32.49;58.16
36798;BME280;22748;8.426;99.512;2023-07-29T07:04:42;100382.38;;;32.52;58.08
36798;BME280;22748;8.426;99.512;2023-07-29T07:07:14;100375.19;;;32.57;57.47
36798;BME280;22748;8.426;99.512;2023-07-29T07:09:46;100379.34;;;32.60;57.68
36798;BME280;22748;8.426;99.512;2023-07-29T07:12:17;100372.63;;;32.63;57.66
36798;BME280;22748;8.426;99.512;2023-07-29T07:14:48;100376.47;;;32.67;57.49
36798;BME280;22748;8.426;99.512;2023-07-29T07:17:31;100366.72;;;32.66;57.97
36798;BME280;22748;8.426;99.512;2023-07-29T07:20:01;100355.44;;;32.69;57.42
36798;BME280;22748;8.426;99.512;2023-07-29T07:22:37;100359.25;;;32.73;57.57
36798;BME280;22748;8.426;99.512;2023-07-29T07:25:19;100357.22;;;32.63;58.16
36798;BME280;22748;8.426;99.512;2023-07-29T07:27:51;100355.56;;;32.62;58.52
36798;BME280;22748;8.426;99.512;2023-07-29T07:30:24;100346.03;;;32.59;58.26
36798;BME280;22748;8.426;99.512;2023-07-29T07:32:56;100340.50;;;32.66;57.99
36798;BME280;22748;8.426;99.512;2023-07-29T07:35:26;100347.59;;;32.55;58.38
36798;BME280;22748;8.426;99.512;2023-07-29T07:37:57;100335.97;;;32.43;58.67
36798;BME280;22748;8.426;99.512;2023-07-29T07:40:32;100342.75;;;32.57;58.73
36798;BME280;22748;8.426;99.512;2023-07-29T07:43:02;100342.75;;;32.57;59.10
36798;BME280;22748;8.426;99.512;2023-07-29T07:45:36;100352.63;;;32.64;59.56
36798;BME280;22748;8.426;99.512;2023-07-29T07:48:11;100342.97;;;32.68;59.95
36798;BME280;22748;8.426;99.512;2023-07-29T07:50:42;100345.19;;;32.71;59.56
36798;BME280;22748;8.426;99.512;2023-07-29T07:53:12;100340.34;;;32.73;59.70
36798;BME280;22748;8.426;99.512;2023-07-29T07:55:42;100333.81;;;32.69;59.65
36798;BME280;22748;8.426;99.512;2023-07-29T07:58:12;100334.75;;;32.63;59.74
36798;BME280;22748;8.426;99.512;2023-07-29T08:00:51;100330.16;;;32.63;59.71
36798;BME280;22748;8.426;99.512;2023-07-29T08:03:33;100331.94;;;32.57;59.99
36798;BME280;22748;8.426;99.512;2023-07-29T08:06:11;100333.50;;;32.53;59.98
36798;BME280;22748;8.426;99.512;2023-07-29T08:08:42;100322.78;;;32.58;59.86
36798;BME280;22748;8.426;99.512;2023-07-29T08:11:24;100305.69;;;32.70;59.29
36798;BME280;22748;8.426;99.512;2023-07-29T08:13:57;100300.28;;;32.70;59.50
36798;BME280;22748;8.426;99.512;2023-07-29T08:16:29;100294.47;;;32.78;59.06
36798;BME280;22748;8.426;99.512;2023-07-29T08:19:02;100298.06;;;32.84;58.89
36798;BME280;22748;8.426;99.512;2023-07-29T08:21:32;100297.84;;;32.85;59.07
36798;BME280;22748;8.426;99.512;2023-07-29T08:24:04;100291.84;;;32.83;58.69
36798;BME280;22748;8.426;99.512;2023-07-29T08:26:34;100292.03;;;32.93;58.13
36798;BME280;22748;8.426;99.512;2023-07-29T08:29:04;100296.72;;;32.98;58.26
36798;BME280;22748;8.426;99.512;2023-07-29T08:31:40;100287.09;;;32.90;58.32
36798;BME280;22748;8.426;99.512;2023-07-29T08:34:21;100286.28;;;32.90;58.34
36798;BME280;22748;8.426;99.512;2023-07-29T08:36:53;100292.91;;;32.99;58.08
36798;BME280;22748;8.426;99.512;2023-07-29T08:39:24;100288.69;;;32.86;57.99
36798;BME280;22748;8.426;99.512;2023-07-29T08:42:01;100295.72;;;32.87;57.82
36798;BME280;22748;8.426;99.512;2023-07-29T08:44:39;100302.69;;;33.00;57.65
36798;BME280;22748;8.426;99.512;2023-07-29T08:47:09;100294.66;;;33.05;57.61
36798;BME280;22748;8.426;99.512;2023-07-29T08:49:41;100293.84;;;33.05;58.03
36798;BME280;22748;8.426;99.512;2023-07-29T08:52:16;100293.72;;;33.11;58.16
36798;BME280;22748;8.426;99.512;2023-07-29T08:54:47;100292.72;;;33.17;57.73
36798;BME280;22748;8.426;99.512;2023-07-29T08:57:19;100293.63;;;33.23;57.81
36798;BME280;22748;8.426;99.512;2023-07-29T08:59:57;100295.19;;;33.19;57.99
36798;BME280;22748;8.426;99.512;2023-07-29T09:02:28;100294.03;;;33.15;58.03
36798;BME280;22748;8.426;99.512;2023-07-29T09:05:06;100293.22;;;33.14;57.83
36798;BME280;22748;8.426;99.512;2023-07-29T09:07:37;100285.81;;;33.10;57.72
36798;BME280;22748;8.426;99.512;2023-07-29T09:10:15;100286.66;;;33.10;57.58
36798;BME280;22748;8.426;99.512;2023-07-29T09:12:45;100286.53;;;33.05;57.62
36798;BME280;22748;8.426;99.512;2023-07-29T09:15:27;100287.28;;;33.00;57.43
36798;BME280;22748;8.426;99.512;2023-07-29T09:17:58;100282.09;;;32.99;57.40
36798;BME280;22748;8.426;99.512;2023-07-29T09:20:30;100287.78;;;32.97;57.34
36798;BME280;22748;8.426;99.512;2023-07-29T09:23:10;100285.16;;;33.03;57.36
36798;BME280;22748;8.426;99.512;2023-07-29T09:25:47;100289.75;;;33.02;57.70
36798;BME280;22748;8.426;99.512;2023-07-29T09:28:18;100291.13;;;33.05;56.87
36798;BME280;22748;8.426;99.512;2023-07-29T09:30:49;100295.03;;;33.09;56.46
36798;BME280;22748;8.426;99.512;2023-07-29T09:33:19;100288.44;;;33.05;56.78
36798;BME280;22748;8.426;99.512;2023-07-29T09:35:52;100300.06;;;33.05;56.35
36798;BME280;22748;8.426;99.512;2023-07-29T09:38:28;100298.69;;;33.03;56.30
36798;BME280;22748;8.426;99.512;2023-07-29T09:40:59;100287.84;;;33.03;56.01
36798;BME280;22748;8.426;99.512;2023-07-29T09:43:29;100294.34;;;33.02;56.19
36798;BME280;22748;8.426;99.512;2023-07-29T09:46:01;100303.72;;;33.11;55.88
36798;BME280;22748;8.426;99.512;2023-07-29T09:48:39;100294.13;;;33.20;55.39
36798;BME280;22748;8.426;99.512;2023-07-29T09:51:16;100303.38;;;33.24;55.56
36798;BME280;22748;8.426;99.512;2023-07-29T09:53:53;100303.44;;;33.29;55.56
36798;BME280;22748;8.426;99.512;2023-07-29T09:56:24;100309.19;;;33.33;55.26
36798;BME280;22748;8.426;99.512;2023-07-29T09:59:01;100310.59;;;33.35;55.22
36798;BME280;22748;8.426;99.512;2023-07-29T10:01:32;100311.16;;;33.37;55.26
36798;BME280;22748;8.426;99.512;2023-07-29T10:04:09;100314.44;;;33.39;55.11
36798;BME280;22748;8.426;99.512;2023-07-29T10:06:46;100312.06;;;33.43;55.14
36798;BME280;22748;8.426;99.512;2023-07-29T10:09:23;100319.44;;;33.48;55.21
36798;BME280;22748;8.426;99.512;2023-07-29T10:11:56;100324.34;;;33.51;55.04
36798;BME280;22748;8.426;99.512;2023-07-29T10:14:28;100322.78;;;33.55;54.92
36798;BME280;22748;8.426;99.512;2023-07-29T10:17:01;100327.16;;;33.56;55.10
36798;BME280;22748;8.426;99.512;2023-07-29T10:19:33;100330.19;;;33.59;54.58
36798;BME280;22748;8.426;99.512;2023-07-29T10:22:13;100327.50;;;33.59;55.05
36798;BME280;22748;8.426;99.512;2023-07-29T10:24:50;100340.78;;;33.61;55.02
36798;BME280;22748;8.426;99.512;2023-07-29T10:27:28;100340.22;;;33.59;55.26
36798;BME280;22748;8.426;99.512;2023-07-29T10:29:58;100342.94;;;33.59;54.75
36798;BME280;22748;8.426;99.512;2023-07-29T10:32:29;100351.63;;;33.61;54.84
36798;BME280;22748;8.426;99.512;2023-07-29T10:35:01;100346.44;;;33.59;54.87
36798;BME280;22748;8.426;99.512;2023-07-29T10:37:34;100356.69;;;33.57;54.84
36798;BME280;22748;8.426;99.512;2023-07-29T10:40:07;100349.63;;;33.56;54.90
36798;BME280;22748;8.426;99.512;2023-07-29T10:42:39;100347.16;;;33.55;54.82
36798;BME280;22748;8.426;99.512;2023-07-29T10:45:37;100351.53;;;33.56;54.79
36798;BME280;22748;8.426;99.512;2023-07-29T10:48:12;100353.75;;;33.59;55.02
36798;BME280;22748;8.426;99.512;2023-07-29T10:50:44;100359.38;;;33.57;54.87
36798;BME280;22748;8.426;99.512;2023-07-29T10:53:17;100367.78;;;33.56;55.22
36798;BME280;22748;8.426;99.512;2023-07-29T10:55:48;100367.19;;;33.54;55.36
36798;BME280;22748;8.426;99.512;2023-07-29T10:58:21;100372.63;;;33.54;55.11
36798;BME280;22748;8.426;99.512;2023-07-29T11:00:53;100372.63;;;33.54;55.19
36798;BME280;22748;8.426;99.512;2023-07-29T11:03:27;100367.44;;;33.52;55.35
36798;BME280;22748;8.426;99.512;2023-07-29T11:06:05;100363.91;;;33.52;55.56
36798;BME280;22748;8.426;99.512;2023-07-29T11:08:38;100373.66;;;33.53;55.61
36798;BME280;22748;8.426;99.512;2023-07-29T11:11:11;100385.06;;;33.55;55.70
36798;BME280;22748;8.426;99.512;2023-07-29T11:13:43;100386.72;;;33.56;56.14
36798;BME280;22748;8.426;99.512;2023-07-29T11:16:17;100395.31;;;33.53;56.11
36798;BME280;22748;8.426;99.512;2023-07-29T11:18:48;100390.16;;;33.51;56.26
36798;BME280;22748;8.426;99.512;2023-07-29T11:21:19;100392.84;;;33.51;56.49
36798;BME280;22748;8.426;99.512;2023-07-29T11:23:54;100397.72;;;33.49;56.65
36798;BME280;22748;8.426;99.512;2023-07-29T11:26:26;100396.06;;;33.48;56.93
36798;BME280;22748;8.426;99.512;2023-07-29T11:28:56;100409.25;;;33.45;57.13
36798;BME280;22748;8.426;99.512;2023-07-29T11:31:40;100407.06;;;33.42;57.29
36798;BME280;22748;8.426;99.512;2023-07-29T11:34:09;100416.50;;;33.39;57.24
36798;BME280;22748;8.426;99.512;2023-07-29T11:36:46;100429.78;;;33.40;57.33
36798;BME280;22748;8.426;99.512;2023-07-29T11:39:20;100433.78;;;33.38;57.51
36798;BME280;22748;8.426;99.512;2023-07-29T11:41:51;100432.75;;;33.39;57.57
36798;BME280;22748;8.426;99.512;2023-07-29T11:44:27;100429.22;;;33.38;57.70
36798;BME280;22748;8.426;99.512;2023-07-29T11:47:03;100434.88;;;33.37;57.33
36798;BME280;22748;8.426;99.512;2023-07-29T11:49:35;100439.69;;;33.35;57.54
36798;BME280;22748;8.426;99.512;2023-07-29T11:52:08;100445.63;;;33.32;57.62
36798;BME280;22748;8.426;99.512;2023-07-29T11:54:47;100445.28;;;33.28;58.02
36798;BME280;22748;8.426;99.512;2023-07-29T11:57:17;100454.44;;;33.27;57.70
36798;BME280;22748;8.426;99.512;2023-07-29T11:59:49;100454.44;;;33.27;57.72
36798;BME280;22748;8.426;99.512;2023-07-29T12:02:32;100448.94;;;33.22;58.07
36798;BME280;22748;8.426;99.512;2023-07-29T12:05:04;100452.97;;;33.19;58.49
36798;BME280;22748;8.426;99.512;2023-07-29T12:07:41;100451.66;;;33.22;58.23
36798;BME280;22748;8.426;99.512;2023-07-29T12:10:14;100455.44;;;33.21;58.35
36798;BME280;22748;8.426;99.512;2023-07-29T12:13:03;100466.25;;;33.21;58.58
36798;BME280;22748;8.426;99.512;2023-07-29T12:15:33;100473.31;;;33.22;58.34
36798;BME280;22748;8.426;99.512;2023-07-29T12:18:09;100472.94;;;33.18;58.89
36798;BME280;22748;8.426;99.512;2023-07-29T12:20:40;100479.22;;;33.19;58.85
36798;BME280;22748;8.426;99.512;2023-07-29T12:23:11;100477.56;;;33.18;59.18
36798;BME280;22748;8.426;99.512;2023-07-29T12:25:44;100475.66;;;33.18;59.19
36798;BME280;22748;8.426;99.512;2023-07-29T12:28:15;100485.09;;;33.16;59.35
36798;BME280;22748;8.426;99.512;2023-07-29T12:30:46;100490.50;;;33.16;59.51
36798;BME280;22748;8.426;99.512;2023-07-29T12:33:30;100493.22;;;33.16;59.72
36798;BME280;22748;8.426;99.512;2023-07-29T12:36:01;100492.97;;;33.17;59.82
36798;BME280;22748;8.426;99.512;2023-07-29T12:38:33;100497.22;;;33.13;59.81
36798;BME280;22748;8.426;99.512;2023-07-29T12:41:06;100506.41;;;33.12;59.94
36798;BME280;22748;8.426;99.512;2023-07-29T12:43:37;100520.19;;;33.11;59.66
36798;BME280;22748;8.426;99.512;2023-07-29T12:46:06;100510.28;;;33.05;59.73
36798;BME280;22748;8.426;99.512;2023-07-29T12:48:37;100516.75;;;33.04;60.13
36798;BME280;22748;8.426;99.512;2023-07-29T12:51:07;100522.19;;;33.04;59.96
36798;BME280;22748;8.426;99.512;2023-07-29T12:53:37;100534.03;;;33.03;60.08
36798;BME280;22748;8.426;99.512;2023-07-29T12:56:10;100529.44;;;33.03;59.76
36798;BME280;22748;8.426;99.512;2023-07-29T12:58:41;100537.81;;;33.02;60.01
36798;BME280;22748;8.426;99.512;2023-07-29T13:01:11;100543.25;;;33.02;60.21
36798;BME280;22748;8.426;99.512;2023-07-29T13:03:46;100551.94;;;33.04;60.06
36798;BME280;22748;8.426;99.512;2023-07-29T13:06:16;100549.47;;;33.02;60.03
36798;BME280;22748;8.426;99.512;2023-07-29T13:08:47;100549.47;;;33.02;59.95
36798;BME280;22748;8.426;99.512;2023-07-29T13:11:19;100558.31;;;32.97;60.16
36798;BME280;22748;8.426;99.512;2023-07-29T13:13:50;100556.63;;;32.96;60.50
36798;BME280;22748;8.426;99.512;2023-07-29T13:16:21;100558.75;;;32.94;60.55
36798;BME280;22748;8.426;99.512;2023-07-29T13:18:52;100561.22;;;32.96;60.64
36798;BME280;22748;8.426;99.512;2023-07-29T13:21:23;100559.94;;;32.98;60.52
36798;BME280;22748;8.426;99.512;2023-07-29T13:24:07;100566.16;;;32.99;60.71